Time;durP1;ratioP1;P1;durP2;ratioP2;P2;SDS_P1;SDS_P2;PMS_P1;PMS_P2;Temp;Humidity;BMP_temperature;BMP_pressure;BME280_temperature;BME280_humidity;BME280_pressure;Samples;Min_cycle;Max_cycle;Signal;HPM_P1;HPM_P2
2023/10/14 00:00:37;;;;;;;;;;;18.70;99.90;;;;;;5076210;28;20372;-76
2023/10/14 00:03:23;;;;;;;;;;;18.70;99.90;;;;;;5076996;28;19955;-76
2023/10/14 00:05:49;;;;;;;;;;;18.70;99.90;;;;;;5077023;28;20296;-75
2023/10/14 00:08:14;;;;;;;;;;;18.70;99.90;;;;;;5076206;28;19916;-75
2023/10/14 00:10:40;;;;;;;;;;;18.70;99.90;;;;;;5075585;28;19913;-76
2023/10/14 00:13:16;;;;;;;;;;;18.70;99.90;;;;;;5076779;28;19908;-75
2023/10/14 00:15:42;;;;;;;;;;;18.80;99.90;;;;;;5074016;28;19962;-76
2023/10/14 00:18:08;;;;;;;;;;;18.70;99.90;;;;;;5075528;28;19915;-76
2023/10/14 00:20:36;;;;;;;;;;;18.70;99.90;;;;;;5076108;28;19920;-76
2023/10/14 00:23:03;;;;;;;;;;;18.70;99.90;;;;;;5075241;28;19912;-76
2023/10/14 00:25:28;;;;;;;;;;;18.70;99.90;;;;;;5076342;28;19920;-76
2023/10/14 00:27:54;;;;;;;;;;;18.70;99.90;;;;;;5076297;28;19921;-76
2023/10/14 00:30:20;;;;;;;;;;;18.70;99.90;;;;;;5075262;28;19912;-76
2023/10/14 00:32:46;;;;;;;;;;;18.70;99.90;;;;;;5074837;28;20064;-76
2023/10/14 00:35:12;;;;;;;;;;;18.60;99.90;;;;;;5076492;28;19912;-76
2023/10/14 00:37:38;;;;;;;;;;;18.60;99.90;;;;;;5076174;28;20019;-76
2023/10/14 00:40:10;;;;;;;;;;;18.60;99.90;;;;;;5071066;28;20453;-76
2023/10/14 00:42:36;;;;;;;;;;;18.60;99.90;;;;;;5076148;28;19917;-76
2023/10/14 00:45:09;;;;;;;;;;;18.50;99.90;;;;;;5075951;28;19938;-76
2023/10/14 00:47:43;;;;;;;;;;;18.50;99.90;;;;;;5074920;28;19958;-75
2023/10/14 00:52:55;;;;;;;;;;;18.50;99.90;;;;;;5073882;28;19919;-76
2023/10/14 00:55:26;;;;;;;;;;;18.50;99.90;;;;;;5073917;28;19962;-75
2023/10/14 00:57:54;;;;;;;;;;;18.60;99.90;;;;;;5075634;28;20388;-76
2023/10/14 01:00:24;;;;;;;;;;;18.80;99.90;;;;;;5074934;28;19909;-75
2023/10/14 01:02:52;;;;;;;;;;;18.80;99.90;;;;;;5075728;28;19978;-77
2023/10/14 01:05:20;;;;;;;;;;;18.80;99.90;;;;;;5075717;28;19918;-76
2023/10/14 01:07:47;;;;;;;;;;;18.80;99.90;;;;;;5075575;28;19995;-76
2023/10/14 01:10:24;;;;;;;;;;;18.70;99.90;;;;;;5074875;28;19915;-76
2023/10/14 01:12:53;;;;;;;;;;;18.60;99.90;;;;;;5075096;28;20001;-76
2023/10/14 01:15:20;;;;;;;;;;;18.50;99.90;;;;;;5075486;28;20300;-76
2023/10/14 01:17:46;;;;;;;;;;;18.40;99.90;;;;;;5073908;28;19958;-76
2023/10/14 01:22:41;;;;;;;;;;;18.10;99.90;;;;;;5075526;28;19908;-76
2023/10/14 01:25:12;;;;;;;;;;;18.00;99.90;;;;;;5074000;28;19962;-76
2023/10/14 01:27:38;;;;;;;;;;;17.90;99.90;;;;;;5075505;28;19908;-76
2023/10/14 01:30:11;;;;;;;;;;;17.80;99.90;;;;;;5074207;28;19921;-76
2023/10/14 01:35:12;;;;;;;;;;;17.60;99.90;;;;;;5075599;28;19959;-76
2023/10/14 01:37:39;;;;;;;;;;;17.60;99.90;;;;;;5074808;28;19935;-76
2023/10/14 01:40:24;;;;;;;;;;;17.60;99.90;;;;;;5075055;28;19998;-76
2023/10/14 01:42:50;;;;;;;;;;;17.60;99.90;;;;;;5073541;28;19919;-76
2023/10/14 01:45:20;;;;;;;;;;;17.50;99.90;;;;;;5075272;28;19909;-76
2023/10/14 01:48:06;;;;;;;;;;;17.40;99.90;;;;;;5075187;28;19930;-76
2023/10/14 01:50:33;;;;;;;;;;;17.40;99.90;;;;;;5071615;28;19916;-76
2023/10/14 01:53:06;;;;;;;;;;;17.30;99.90;;;;;;5075096;28;20494;-76
2023/10/14 01:55:35;;;;;;;;;;;17.30;99.90;;;;;;5075140;28;19909;-76
2023/10/14 01:58:02;;;;;;;;;;;17.30;99.90;;;;;;5074584;28;19912;-77
2023/10/14 02:00:35;;;;;;;;;;;17.30;99.90;;;;;;5074151;28;19908;-77
2023/10/14 02:03:06;;;;;;;;;;;17.30;99.90;;;;;;5074921;28;19909;-77
2023/10/14 02:05:34;;;;;;;;;;;17.30;99.90;;;;;;5074337;28;20269;-77
2023/10/14 02:08:00;;;;;;;;;;;17.30;99.90;;;;;;5073619;28;19986;-76
2023/10/14 02:10:27;;;;;;;;;;;17.40;99.90;;;;;;5073032;28;19913;-76
2023/10/14 02:12:56;;;;;;;;;;;17.40;99.90;;;;;;5073201;28;19938;-76
2023/10/14 02:15:24;;;;;;;;;;;17.30;99.90;;;;;;5073775;28;19916;-75
2023/10/14 02:17:50;;;;;;;;;;;17.40;99.90;;;;;;5074936;28;20423;-76
2023/10/14 02:20:27;;;;;;;;;;;17.50;99.90;;;;;;5072917;28;19912;-76
2023/10/14 02:22:57;;;;;;;;;;;17.60;99.90;;;;;;5071937;28;19912;-76
2023/10/14 02:25:27;;;;;;;;;;;17.80;99.90;;;;;;5074931;28;19913;-76
2023/10/14 02:27:54;;;;;;;;;;;17.90;99.90;;;;;;5074072;28;20372;-76
2023/10/14 02:30:19;;;;;;;;;;;18.00;99.90;;;;;;5073823;28;20003;-75
2023/10/14 02:32:45;;;;;;;;;;;18.00;99.90;;;;;;5074997;28;19959;-76
2023/10/14 02:35:15;;;;;;;;;;;18.10;99.90;;;;;;5077451;28;19916;-76
2023/10/14 02:37:41;;;;;;;;;;;18.20;99.90;;;;;;5078588;28;19921;-76
2023/10/14 02:40:12;;;;;;;;;;;18.40;99.90;;;;;;5077844;28;19919;-75
2023/10/14 02:42:39;;;;;;;;;;;18.40;99.90;;;;;;5078411;28;19953;-76
2023/10/14 02:45:12;;;;;;;;;;;18.50;99.90;;;;;;5077440;28;19998;-75
2023/10/14 02:47:38;;;;;;;;;;;18.50;99.90;;;;;;5078616;28;19916;-75
2023/10/14 02:50:12;;;;;;;;;;;18.50;99.90;;;;;;5077800;28;19946;-75
2023/10/14 02:52:49;;;;;;;;;;;18.60;99.90;;;;;;5078081;28;19913;-75
2023/10/14 02:55:25;;;;;;;;;;;18.60;99.90;;;;;;5078320;28;19912;-75
2023/10/14 02:57:51;;;;;;;;;;;18.50;99.90;;;;;;5074813;28;19997;-76
2023/10/14 03:00:23;;;;;;;;;;;18.40;99.90;;;;;;5077224;28;19917;-76
2023/10/14 03:02:54;;;;;;;;;;;18.30;99.90;;;;;;5078221;28;19908;-76
2023/10/14 03:05:33;;;;;;;;;;;18.20;99.90;;;;;;5077055;28;19947;-76
2023/10/14 03:08:20;;;;;;;;;;;18.20;99.90;;;;;;5076352;28;19909;-76
2023/10/14 03:10:46;;;;;;;;;;;18.20;99.90;;;;;;5075651;28;19919;-77
2023/10/14 03:13:12;;;;;;;;;;;18.20;99.90;;;;;;5077719;28;19917;-76
2023/10/14 03:15:38;;;;;;;;;;;18.10;99.90;;;;;;5076399;28;19915;-76
2023/10/14 03:18:05;;;;;;;;;;;18.10;99.90;;;;;;5077936;28;19912;-77
2023/10/14 03:22:59;;;;;;;;;;;18.00;99.90;;;;;;5078005;28;20304;-76
2023/10/14 03:25:25;;;;;;;;;;;17.90;99.90;;;;;;5077771;28;20007;-76
2023/10/14 03:27:50;;;;;;;;;;;17.90;99.90;;;;;;5077571;28;19962;-76
2023/10/14 03:30:20;;;;;;;;;;;17.80;99.90;;;;;;5076406;28;19908;-76
2023/10/14 03:32:46;;;;;;;;;;;17.80;99.90;;;;;;5077238;28;19920;-76
2023/10/14 03:35:20;;;;;;;;;;;17.80;99.90;;;;;;5076331;28;20395;-76
2023/10/14 03:37:53;;;;;;;;;;;17.80;99.90;;;;;;5077469;28;19915;-76
2023/10/14 03:43:14;;;;;;;;;;;17.70;99.90;;;;;;5076791;28;20006;-76
2023/10/14 03:45:56;;;;;;;;;;;17.70;99.90;;;;;;5077382;28;19971;-76
2023/10/14 03:48:29;;;;;;;;;;;17.70;99.90;;;;;;5076068;28;19909;-77
2023/10/14 03:51:02;;;;;;;;;;;17.70;99.90;;;;;;5090139;28;19917;-76
2023/10/14 03:53:33;;;;;;;;;;;17.70;99.90;;;;;;5077244;28;20026;-76
2023/10/14 03:56:00;;;;;;;;;;;17.70;99.90;;;;;;5077009;28;20415;-77
2023/10/14 03:58:29;;;;;;;;;;;17.70;99.90;;;;;;5077041;28;19916;-76
2023/10/14 04:00:56;;;;;;;;;;;17.70;99.90;;;;;;5075937;28;19952;-76
2023/10/14 04:03:43;;;;;;;;;;;17.70;99.90;;;;;;5077251;28;19913;-76
2023/10/14 04:06:08;;;;;;;;;;;17.70;99.90;;;;;;5076113;28;19989;-76
2023/10/14 04:08:46;;;;;;;;;;;17.70;99.90;;;;;;5075572;28;19916;-76
2023/10/14 04:11:13;;;;;;;;;;;17.70;99.90;;;;;;5074847;28;20373;-76
2023/10/14 04:13:58;;;;;;;;;;;17.70;99.90;;;;;;5076536;28;19967;-76
2023/10/14 04:19:27;;;;;;;;;;;17.70;99.90;;;;;;5075900;28;19909;-76
2023/10/14 04:21:54;;;;;;;;;;;17.70;99.90;;;;;;5074808;28;19909;-76
2023/10/14 04:24:28;;;;;;;;;;;17.70;99.90;;;;;;5076570;28;19919;-76
2023/10/14 04:27:16;;;;;;;;;;;17.70;99.90;;;;;;5076284;28;20409;-77
2023/10/14 04:29:40;;;;;;;;;;;17.60;99.90;;;;;;5075946;28;19918;-76
2023/10/14 04:32:16;;;;;;;;;;;17.60;99.90;;;;;;5074191;28;20007;-76
2023/10/14 04:34:46;;;;;;;;;;;17.60;99.90;;;;;;5076234;28;19909;-76
2023/10/14 04:37:20;;;;;;;;;;;17.60;99.90;;;;;;5075016;28;19908;-76
2023/10/14 04:39:45;;;;;;;;;;;17.60;99.90;;;;;;5075733;28;19919;-76
2023/10/14 04:44:53;;;;;;;;;;;17.60;99.90;;;;;;5076067;28;19916;-77
2023/10/14 04:50:13;;;;;;;;;;;17.80;99.90;;;;;;5070520;28;19923;-77
2023/10/14 04:52:41;;;;;;;;;;;18.00;99.90;;;;;;5076062;28;19912;-75
2023/10/14 04:55:18;;;;;;;;;;;18.00;99.90;;;;;;5075639;28;20326;-75
2023/10/14 04:57:50;;;;;;;;;;;18.10;99.90;;;;;;5075675;28;19919;-76
2023/10/14 05:00:31;;;;;;;;;;;18.10;99.90;;;;;;5075005;28;20005;-76
2023/10/14 05:02:59;;;;;;;;;;;18.20;99.90;;;;;;5075732;28;20380;-76
2023/10/14 05:05:30;;;;;;;;;;;18.20;99.90;;;;;;5075656;28;19912;-75
2023/10/14 05:07:58;;;;;;;;;;;18.30;99.90;;;;;;5074467;28;19962;-76
2023/10/14 05:10:28;;;;;;;;;;;18.30;99.90;;;;;;5073698;28;19917;-76
2023/10/14 05:12:57;;;;;;;;;;;18.30;99.90;;;;;;5073438;28;19913;-75
2023/10/14 05:15:26;;;;;;;;;;;18.30;99.90;;;;;;5080262;28;20391;-75
2023/10/14 05:17:52;;;;;;;;;;;18.30;99.90;;;;;;5077393;28;19912;-76
2023/10/14 05:20:38;;;;;;;;;;;18.30;99.90;;;;;;5078464;28;19928;-76
2023/10/14 05:23:05;;;;;;;;;;;18.20;99.90;;;;;;5075346;28;20391;-76
2023/10/14 05:25:30;;;;;;;;;;;18.20;99.90;;;;;;5073267;28;19912;-76
2023/10/14 05:27:56;;;;;;;;;;;18.20;99.90;;;;;;5077017;28;19966;-75
2023/10/14 05:30:22;;;;;;;;;;;18.20;99.90;;;;;;5081111;28;19996;-75
2023/10/14 05:32:49;;;;;;;;;;;18.20;99.90;;;;;;5077987;28;19920;-76
2023/10/14 05:35:14;;;;;;;;;;;18.20;99.90;;;;;;5077546;28;19920;-75
2023/10/14 05:37:42;;;;;;;;;;;18.20;99.90;;;;;;5076536;28;19908;-76
2023/10/14 05:40:15;;;;;;;;;;;18.20;99.90;;;;;;5077176;28;19909;-75
2023/10/14 05:42:43;;;;;;;;;;;18.20;99.90;;;;;;5075582;28;19908;-75
2023/10/14 05:45:11;;;;;;;;;;;18.10;99.90;;;;;;5079349;28;19954;-75
2023/10/14 05:47:37;;;;;;;;;;;18.20;99.90;;;;;;5080061;28;19912;-76
2023/10/14 05:50:06;;;;;;;;;;;18.20;99.90;;;;;;5075552;28;19909;-76
2023/10/14 05:52:32;;;;;;;;;;;18.10;99.90;;;;;;5075804;28;19916;-76
2023/10/14 05:55:00;;;;;;;;;;;18.10;99.90;;;;;;5075414;28;20319;-75
2023/10/14 05:57:29;;;;;;;;;;;18.00;99.90;;;;;;5076624;28;19964;-75
2023/10/14 05:59:57;;;;;;;;;;;18.00;99.90;;;;;;5075537;28;20460;-75
2023/10/14 06:02:22;;;;;;;;;;;18.00;99.90;;;;;;5075634;28;19947;-75
2023/10/14 06:04:50;;;;;;;;;;;18.00;99.90;;;;;;5075919;28;20379;-76
2023/10/14 06:07:18;;;;;;;;;;;17.90;99.90;;;;;;5074473;28;19915;-76
2023/10/14 06:09:45;;;;;;;;;;;18.00;99.90;;;;;;5077733;28;19947;-76
2023/10/14 06:12:14;;;;;;;;;;;18.00;99.90;;;;;;5075108;28;19912;-75
2023/10/14 06:14:43;;;;;;;;;;;18.00;99.90;;;;;;5076707;28;19958;-76
2023/10/14 06:17:09;;;;;;;;;;;18.00;99.90;;;;;;5076814;28;20341;-76
2023/10/14 06:19:38;;;;;;;;;;;17.90;99.90;;;;;;5075684;28;19916;-74
2023/10/14 06:22:04;;;;;;;;;;;18.00;99.90;;;;;;5077090;28;19912;-75
2023/10/14 06:24:30;;;;;;;;;;;18.00;99.90;;;;;;5077424;28;20388;-76
2023/10/14 06:27:07;;;;;;;;;;;18.00;99.90;;;;;;5075701;28;19999;-76
2023/10/14 06:29:35;;;;;;;;;;;18.00;99.90;;;;;;5075253;28;20308;-76
2023/10/14 06:32:03;;;;;;;;;;;18.00;99.90;;;;;;5074383;28;19920;-76
2023/10/14 06:34:31;;;;;;;;;;;18.00;99.90;;;;;;5075337;28;19985;-77
2023/10/14 06:37:01;;;;;;;;;;;18.00;99.90;;;;;;5073215;28;20046;-78
2023/10/14 06:39:27;;;;;;;;;;;18.00;99.90;;;;;;5073085;28;19909;-78
2023/10/14 06:41:55;;;;;;;;;;;18.00;99.90;;;;;;5072173;28;19916;-77
2023/10/14 06:44:26;;;;;;;;;;;18.00;99.90;;;;;;5074427;28;19917;-79
2023/10/14 06:46:56;;;;;;;;;;;18.10;99.90;;;;;;5073521;28;19908;-78
2023/10/14 06:49:23;;;;;;;;;;;18.10;99.90;;;;;;5074428;28;19908;-78
2023/10/14 06:51:51;;;;;;;;;;;18.10;99.90;;;;;;5074861;28;19963;-77
2023/10/14 06:54:25;;;;;;;;;;;18.20;99.90;;;;;;5075777;28;19931;-79
2023/10/14 06:56:54;;;;;;;;;;;18.20;99.90;;;;;;5073262;28;19912;-77
2023/10/14 06:59:20;;;;;;;;;;;18.30;99.90;;;;;;5069595;28;20396;-77
2023/10/14 07:01:45;;;;;;;;;;;18.30;99.90;;;;;;5074027;28;19974;-78
2023/10/14 07:04:16;;;;;;;;;;;18.40;99.90;;;;;;5074504;28;19909;-78
2023/10/14 07:06:47;;;;;;;;;;;18.40;99.90;;;;;;5073163;28;19909;-76
2023/10/14 07:09:22;;;;;;;;;;;18.50;99.90;;;;;;5073907;28;19958;-77
2023/10/14 07:11:48;;;;;;;;;;;18.50;99.90;;;;;;5070621;28;19912;-76
2023/10/14 07:14:14;;;;;;;;;;;18.60;99.90;;;;;;5074096;28;19955;-76
2023/10/14 07:16:40;;;;;;;;;;;18.70;99.90;;;;;;5074151;28;19948;-76
2023/10/14 07:19:06;;;;;;;;;;;18.70;99.90;;;;;;5075516;28;19913;-77
2023/10/14 07:21:31;;;;;;;;;;;18.80;99.90;;;;;;5077542;28;20654;-76
2023/10/14 07:24:05;;;;;;;;;;;18.80;99.90;;;;;;5077799;28;19915;-77
2023/10/14 07:26:36;;;;;;;;;;;18.80;99.90;;;;;;5077607;28;19959;-76
2023/10/14 07:29:02;;;;;;;;;;;18.90;99.90;;;;;;5076950;28;19916;-76
2023/10/14 07:31:30;;;;;;;;;;;19.00;99.90;;;;;;5075735;28;19966;-76
2023/10/14 07:34:02;;;;;;;;;;;19.10;99.90;;;;;;5077169;28;20612;-76
2023/10/14 07:36:28;;;;;;;;;;;19.20;99.90;;;;;;5077653;28;19930;-77
2023/10/14 07:39:01;;;;;;;;;;;19.20;99.90;;;;;;5076664;28;20335;-77
2023/10/14 07:41:26;;;;;;;;;;;19.30;99.90;;;;;;5076737;28;19912;-77
2023/10/14 07:43:52;;;;;;;;;;;19.40;99.90;;;;;;5077359;28;19915;-76
2023/10/14 07:46:17;;;;;;;;;;;19.40;99.90;;;;;;5076030;28;19912;-76
2023/10/14 07:48:43;;;;;;;;;;;19.40;99.90;;;;;;5075691;28;19909;-75
2023/10/14 07:51:09;;;;;;;;;;;19.50;99.90;;;;;;5076179;28;19970;-76
2023/10/14 07:53:35;;;;;;;;;;;19.40;99.90;;;;;;5075568;28;21543;-76
2023/10/14 07:56:01;;;;;;;;;;;19.40;99.90;;;;;;5076852;28;19916;-76
2023/10/14 07:58:27;;;;;;;;;;;19.40;99.90;;;;;;5076961;28;19909;-77
2023/10/14 08:00:53;;;;;;;;;;;19.30;99.90;;;;;;5076066;28;19992;-76
2023/10/14 08:03:20;;;;;;;;;;;19.30;99.90;;;;;;5075987;28;19943;-76
2023/10/14 08:05:49;;;;;;;;;;;19.30;99.90;;;;;;5077218;28;19913;-76
2023/10/14 08:08:15;;;;;;;;;;;19.40;99.90;;;;;;5077257;28;20094;-76
2023/10/14 08:10:43;;;;;;;;;;;19.40;99.90;;;;;;5074684;28;20052;-76
2023/10/14 08:13:18;;;;;;;;;;;19.50;99.90;;;;;;5076973;28;19917;-77
2023/10/14 08:15:43;;;;;;;;;;;19.50;99.90;;;;;;5076109;28;19913;-76
2023/10/14 08:18:11;;;;;;;;;;;19.70;99.90;;;;;;5075571;28;19959;-77
2023/10/14 08:20:37;;;;;;;;;;;19.80;99.90;;;;;;5075142;28;19920;-78
2023/10/14 08:23:09;;;;;;;;;;;19.90;99.90;;;;;;5076920;28;20444;-76
2023/10/14 08:25:39;;;;;;;;;;;20.00;99.90;;;;;;5075606;28;19913;-76
2023/10/14 08:28:05;;;;;;;;;;;20.10;99.90;;;;;;5076558;28;19912;-76
2023/10/14 08:30:45;;;;;;;;;;;20.10;99.90;;;;;;5072911;28;19919;-76
2023/10/14 08:33:14;;;;;;;;;;;20.10;99.90;;;;;;5076413;28;19913;-74
2023/10/14 08:35:42;;;;;;;;;;;20.10;99.90;;;;;;5073601;28;19913;-75
2023/10/14 08:38:17;;;;;;;;;;;20.10;99.90;;;;;;5073920;28;19920;-75
2023/10/14 08:40:49;;;;;;;;;;;20.20;99.90;;;;;;5075318;28;19917;-76
2023/10/14 08:43:19;;;;;;;;;;;20.30;99.90;;;;;;5071953;28;20001;-76
2023/10/14 08:45:47;;;;;;;;;;;20.60;99.90;;;;;;5075699;28;19916;-76
2023/10/14 08:48:16;;;;;;;;;;;20.90;99.90;;;;;;5076289;28;20396;-76
2023/10/14 08:50:42;;;;;;;;;;;21.10;99.90;;;;;;5075518;28;19913;-80
2023/10/14 08:53:15;;;;;;;;;;;21.20;99.90;;;;;;5075030;28;19912;-78
2023/10/14 08:55:44;;;;;;;;;;;21.10;99.90;;;;;;5074202;28;19931;-76
2023/10/14 08:58:13;;;;;;;;;;;21.20;99.90;;;;;;5076413;28;19920;-77
2023/10/14 09:00:39;;;;;;;;;;;21.00;99.90;;;;;;5074956;28;19909;-77
2023/10/14 09:03:09;;;;;;;;;;;21.00;99.90;;;;;;5076191;28;20275;-76
2023/10/14 09:05:44;;;;;;;;;;;20.90;99.90;;;;;;5074566;28;19920;-78
2023/10/14 09:08:16;;;;;;;;;;;20.90;99.90;;;;;;5075582;28;19924;-76
2023/10/14 09:10:43;;;;;;;;;;;20.90;99.90;;;;;;5073948;28;20348;-76
2023/10/14 09:13:09;;;;;;;;;;;20.90;99.90;;;;;;5075882;28;19934;-77
2023/10/14 09:15:39;;;;;;;;;;;21.00;99.90;;;;;;5075816;28;19908;-79
2023/10/14 09:18:18;;;;;;;;;;;21.10;99.90;;;;;;5075160;28;19986;-77
2023/10/14 09:20:44;;;;;;;;;;;21.30;99.90;;;;;;5074894;28;19923;-77
2023/10/14 09:23:09;;;;;;;;;;;21.40;99.90;;;;;;5075228;28;19916;-82
2023/10/14 09:25:39;;;;;;;;;;;21.40;99.90;;;;;;5074599;28;19916;-77
2023/10/14 09:28:06;;;;;;;;;;;21.30;99.90;;;;;;5073971;28;19948;-78
2023/10/14 09:30:31;;;;;;;;;;;21.30;99.90;;;;;;5074516;28;20002;-78
2023/10/14 09:32:57;;;;;;;;;;;21.20;99.90;;;;;;5075258;28;19952;-76
2023/10/14 09:35:29;;;;;;;;;;;21.20;99.90;;;;;;5074931;28;19915;-78
2023/10/14 09:37:55;;;;;;;;;;;21.00;99.90;;;;;;5093787;28;19920;-78
2023/10/14 09:40:21;;;;;;;;;;;21.10;99.90;;;;;;5074061;28;19923;-78
2023/10/14 09:42:48;;;;;;;;;;;21.10;99.90;;;;;;5072806;28;20007;-77
2023/10/14 09:45:14;;;;;;;;;;;21.30;99.90;;;;;;5073871;28;19985;-77
2023/10/14 09:47:40;;;;;;;;;;;21.40;99.90;;;;;;5074731;28;19919;-78
2023/10/14 09:50:12;;;;;;;;;;;21.40;99.90;;;;;;5073090;28;19909;-77
2023/10/14 09:52:42;;;;;;;;;;;21.40;99.90;;;;;;5072757;28;19916;-77
2023/10/14 09:55:14;;;;;;;;;;;21.40;99.90;;;;;;5075104;28;19999;-76
2023/10/14 09:57:42;;;;;;;;;;;21.30;99.90;;;;;;5068667;28;19912;-78
2023/10/14 10:00:08;;;;;;;;;;;21.30;99.90;;;;;;5073691;28;19915;-75
2023/10/14 10:02:34;;;;;;;;;;;21.40;99.90;;;;;;5075023;28;20548;-76
2023/10/14 10:05:01;;;;;;;;;;;21.40;99.90;;;;;;5074913;28;20015;-77
2023/10/14 10:07:45;;;;;;;;;;;21.40;99.90;;;;;;5074557;28;19942;-78
2023/10/14 10:10:16;;;;;;;;;;;21.50;99.90;;;;;;5072281;28;20694;-79
2023/10/14 10:12:43;;;;;;;;;;;21.60;99.90;;;;;;5074661;28;19920;-77
2023/10/14 10:15:09;;;;;;;;;;;21.80;99.90;;;;;;5074502;28;19958;-77
2023/10/14 10:17:36;;;;;;;;;;;22.10;99.90;;;;;;5074539;28;19916;-78
2023/10/14 10:20:09;;;;;;;;;;;22.00;99.90;;;;;;5072244;28;19908;-78
2023/10/14 10:22:52;;;;;;;;;;;22.10;99.90;;;;;;5074944;28;20403;-78
2023/10/14 10:25:18;;;;;;;;;;;22.10;99.90;;;;;;5074558;28;19909;-79
2023/10/14 10:27:45;;;;;;;;;;;22.40;99.90;;;;;;5072596;28;20407;-78
2023/10/14 10:30:14;;;;;;;;;;;22.50;99.90;;;;;;5074409;28;19974;-78
2023/10/14 10:32:42;;;;;;;;;;;22.50;99.90;;;;;;5074318;28;20310;-79
2023/10/14 10:35:13;;;;;;;;;;;22.70;99.90;;;;;;5074721;28;19909;-79
2023/10/14 10:37:52;;;;;;;;;;;22.70;99.90;;;;;;5073799;28;19913;-79
2023/10/14 10:40:22;;;;;;;;;;;22.80;99.90;;;;;;5074681;28;20448;-79
2023/10/14 10:42:54;;;;;;;;;;;22.80;99.90;;;;;;5074012;28;20381;-79
2023/10/14 10:45:21;;;;;;;;;;;22.70;99.90;;;;;;5074374;28;19909;-79
2023/10/14 10:47:52;;;;;;;;;;;22.60;99.90;;;;;;5074051;28;19913;-81
2023/10/14 10:50:17;;;;;;;;;;;22.70;99.90;;;;;;5074423;28;19909;-79
2023/10/14 10:52:51;;;;;;;;;;;22.70;99.90;;;;;;5074634;28;20277;-79
2023/10/14 10:55:17;;;;;;;;;;;22.60;99.90;;;;;;5078498;28;19919;-77
2023/10/14 10:57:44;;;;;;;;;;;22.50;99.90;;;;;;5077433;28;19912;-79
2023/10/14 11:00:10;;;;;;;;;;;22.40;99.90;;;;;;5077953;28;19908;-78
2023/10/14 11:02:36;;;;;;;;;;;22.30;99.90;;;;;;5077976;28;19909;-79
2023/10/14 11:05:02;;;;;;;;;;;22.40;99.90;;;;;;5078192;28;19965;-79
2023/10/14 11:07:28;;;;;;;;;;;22.30;99.90;;;;;;5077223;28;20017;-80
2023/10/14 11:09:54;;;;;;;;;;;22.30;99.90;;;;;;5077983;28;20320;-77
2023/10/14 11:12:19;;;;;;;;;;;22.30;99.90;;;;;;5076398;28;19999;-78
2023/10/14 11:14:45;;;;;;;;;;;22.20;99.90;;;;;;5078181;28;20003;-77
2023/10/14 11:17:10;;;;;;;;;;;22.30;99.90;;;;;;5077159;28;20832;-78
2023/10/14 11:19:36;;;;;;;;;;;22.40;99.90;;;;;;5077767;28;19939;-79
2023/10/14 11:22:02;;;;;;;;;;;22.50;99.90;;;;;;5109103;28;19913;-79
2023/10/14 11:24:30;;;;;;;;;;;22.80;99.90;;;;;;5077654;28;19917;-80
2023/10/14 11:26:57;;;;;;;;;;;22.80;99.90;;;;;;5075709;28;19916;-78
2023/10/14 11:29:26;;;;;;;;;;;22.90;99.90;;;;;;5077721;28;19948;-79
2023/10/14 11:31:53;;;;;;;;;;;23.10;99.90;;;;;;5091422;28;19931;-79
2023/10/14 11:34:20;;;;;;;;;;;23.30;99.90;;;;;;5077777;28;19954;-79
2023/10/14 11:36:48;;;;;;;;;;;23.50;99.90;;;;;;5077120;28;19908;-78
2023/10/14 11:39:18;;;;;;;;;;;23.70;99.90;;;;;;5077676;28;19975;-78
2023/10/14 11:41:50;;;;;;;;;;;23.60;99.90;;;;;;5076082;28;19947;-79
2023/10/14 11:44:17;;;;;;;;;;;23.60;99.90;;;;;;5077219;28;19999;-79
2023/10/14 11:46:43;;;;;;;;;;;23.70;99.90;;;;;;5076383;28;19916;-79
2023/10/14 11:49:12;;;;;;;;;;;23.80;99.90;;;;;;5077447;28;19914;-79
2023/10/14 11:51:41;;;;;;;;;;;23.70;99.90;;;;;;5074617;28;19963;-78
2023/10/14 11:54:08;;;;;;;;;;;23.60;99.90;;;;;;5074228;28;19919;-80
2023/10/14 11:56:33;;;;;;;;;;;23.60;99.90;;;;;;5074996;28;20347;-78
2023/10/14 11:59:00;;;;;;;;;;;23.50;99.90;;;;;;5075579;28;19920;-78
2023/10/14 12:01:26;;;;;;;;;;;23.50;99.90;;;;;;5075697;28;19958;-79
2023/10/14 12:03:52;;;;;;;;;;;23.50;99.90;;;;;;5076963;28;19914;-78
2023/10/14 12:06:17;;;;;;;;;;;23.40;99.90;;;;;;5074945;28;19958;-79
2023/10/14 12:08:45;;;;;;;;;;;23.50;99.90;;;;;;5075444;28;19913;-79
2023/10/14 12:11:14;;;;;;;;;;;23.40;99.90;;;;;;5075485;28;20307;-80
2023/10/14 12:13:40;;;;;;;;;;;23.40;99.90;;;;;;5077205;28;19917;-80
2023/10/14 12:16:06;;;;;;;;;;;23.40;99.90;;;;;;5072176;28;19931;-79
2023/10/14 12:18:37;;;;;;;;;;;23.50;99.90;;;;;;5076733;28;19909;-78
2023/10/14 12:21:03;;;;;;;;;;;23.50;99.90;;;;;;5076693;28;19908;-79
2023/10/14 12:23:31;;;;;;;;;;;23.30;99.90;;;;;;5076670;28;19912;-77
2023/10/14 12:25:58;;;;;;;;;;;23.10;99.90;;;;;;5076500;28;19930;-77
2023/10/14 12:28:27;;;;;;;;;;;23.10;99.90;;;;;;5076016;28;19914;-78
2023/10/14 12:30:55;;;;;;;;;;;23.00;99.90;;;;;;5076587;28;19920;-81
2023/10/14 12:33:23;;;;;;;;;;;23.00;99.90;;;;;;5075730;28;19916;-79
2023/10/14 12:35:51;;;;;;;;;;;23.10;99.90;;;;;;5077696;28;19977;-77
2023/10/14 12:38:20;;;;;;;;;;;23.20;99.90;;;;;;5075939;28;19999;-79
2023/10/14 12:40:48;;;;;;;;;;;23.30;99.90;;;;;;5076354;28;19921;-78
2023/10/14 12:43:15;;;;;;;;;;;23.40;99.90;;;;;;5072574;28;19941;-77
2023/10/14 12:45:42;;;;;;;;;;;23.30;99.90;;;;;;5075057;28;19991;-78
2023/10/14 12:48:10;;;;;;;;;;;23.40;99.90;;;;;;5076213;28;19913;-79
2023/10/14 12:50:41;;;;;;;;;;;23.40;99.90;;;;;;5070566;28;19909;-77
2023/10/14 12:53:08;;;;;;;;;;;23.50;99.90;;;;;;5077030;28;19998;-78
2023/10/14 12:55:41;;;;;;;;;;;23.60;99.90;;;;;;5075220;28;20327;-79
2023/10/14 12:58:07;;;;;;;;;;;23.60;99.90;;;;;;5077283;28;19916;-79
2023/10/14 13:00:33;;;;;;;;;;;23.70;99.90;;;;;;5076541;28;19908;-79
2023/10/14 13:02:59;;;;;;;;;;;23.60;99.90;;;;;;5075711;28;19939;-77
2023/10/14 13:05:28;;;;;;;;;;;23.60;99.90;;;;;;5076601;28;19912;-79
2023/10/14 13:07:54;;;;;;;;;;;23.60;99.90;;;;;;5076818;28;20011;-79
2023/10/14 13:10:24;;;;;;;;;;;23.60;99.90;;;;;;5076762;28;20067;-79
2023/10/14 13:12:53;;;;;;;;;;;23.60;99.90;;;;;;5075445;28;19912;-78
2023/10/14 13:15:27;;;;;;;;;;;23.80;99.90;;;;;;5076292;28;19912;-76
2023/10/14 13:17:56;;;;;;;;;;;24.00;99.90;;;;;;5075214;28;20475;-78
2023/10/14 13:20:26;;;;;;;;;;;24.00;99.90;;;;;;5076387;28;20042;-78
2023/10/14 13:22:53;;;;;;;;;;;24.10;99.90;;;;;;5075422;28;19912;-77
2023/10/14 13:25:21;;;;;;;;;;;24.30;99.90;;;;;;5076533;28;19908;-79
2023/10/14 13:27:51;;;;;;;;;;;24.20;99.90;;;;;;5076089;28;19916;-78
2023/10/14 13:30:18;;;;;;;;;;;24.10;99.90;;;;;;5076218;28;19912;-79
2023/10/14 13:32:44;;;;;;;;;;;24.00;99.90;;;;;;5075883;28;19921;-78
2023/10/14 13:35:09;;;;;;;;;;;23.80;99.90;;;;;;5076495;28;19909;-78
2023/10/14 13:37:35;;;;;;;;;;;23.60;99.90;;;;;;5076071;28;19909;-78
2023/10/14 13:40:00;;;;;;;;;;;23.60;99.90;;;;;;5076382;28;19912;-78
2023/10/14 13:42:26;;;;;;;;;;;23.70;99.90;;;;;;5076006;28;19913;-78
2023/10/14 13:44:51;;;;;;;;;;;23.70;99.90;;;;;;5076184;28;19912;-76
2023/10/14 13:47:17;;;;;;;;;;;23.90;99.90;;;;;;5075921;28;19916;-78
2023/10/14 13:49:45;;;;;;;;;;;23.90;99.90;;;;;;5076179;28;19909;-79
2023/10/14 13:52:14;;;;;;;;;;;24.00;99.90;;;;;;5074409;28;19919;-78
2023/10/14 13:54:41;;;;;;;;;;;24.20;99.90;;;;;;5076174;28;19959;-78
2023/10/14 13:57:11;;;;;;;;;;;24.10;99.90;;;;;;5075653;28;19952;-79
2023/10/14 13:59:39;;;;;;;;;;;24.00;99.90;;;;;;5075676;28;19919;-76
2023/10/14 14:02:06;;;;;;;;;;;23.90;99.90;;;;;;5075725;28;19912;-75
2023/10/14 14:04:33;;;;;;;;;;;23.70;99.90;;;;;;5076338;28;20364;-77
2023/10/14 14:06:59;;;;;;;;;;;23.50;99.90;;;;;;5074144;28;19909;-78
2023/10/14 14:09:27;;;;;;;;;;;23.40;99.90;;;;;;5075935;28;20339;-79
2023/10/14 14:11:55;;;;;;;;;;;23.20;99.90;;;;;;5074237;28;19977;-78
2023/10/14 14:14:22;;;;;;;;;;;23.10;99.90;;;;;;5075526;28;19915;-83
2023/10/14 14:16:48;;;;;;;;;;;23.00;99.90;;;;;;5075651;28;19919;-79
2023/10/14 14:19:15;;;;;;;;;;;23.00;99.90;;;;;;5074190;28;19908;-78
2023/10/14 14:21:43;;;;;;;;;;;22.90;99.90;;;;;;5075824;28;20003;-79
2023/10/14 14:24:09;;;;;;;;;;;22.90;99.90;;;;;;5075496;28;19913;-78
2023/10/14 14:26:35;;;;;;;;;;;22.80;99.90;;;;;;5075724;28;20347;-78
2023/10/14 14:29:02;;;;;;;;;;;22.80;99.90;;;;;;5077889;28;19912;-77
2023/10/14 14:31:29;;;;;;;;;;;22.70;99.90;;;;;;5079212;28;19924;-79
2023/10/14 14:33:54;;;;;;;;;;;22.60;99.90;;;;;;5080118;28;19920;-78
2023/10/14 14:36:20;;;;;;;;;;;22.60;99.90;;;;;;5079315;28;20277;-78
2023/10/14 14:38:46;;;;;;;;;;;22.50;99.90;;;;;;5079215;28;19912;-76
2023/10/14 14:41:25;;;;;;;;;;;22.40;99.90;;;;;;5079376;28;19948;-79
2023/10/14 14:43:51;;;;;;;;;;;22.20;99.90;;;;;;5078069;28;20011;-77
2023/10/14 14:46:17;;;;;;;;;;;22.00;99.90;;;;;;5078243;28;19956;-77